Aeroporto :
LOGIN :

Iscrizione | Disclaimer

   EN    FR    IT 

 










Sommario :    VFR   VFR Marginale   IFR   IFR Intensivo   IFR Molto Intensivo
Visibilità : 
Base nubi : 
>= 8 km
>= 3000ft
5 / 8 km
1000 / 3000 ft
1500m / 5 km
500 / 1000 ft
800 / 1500m
200 / 500 ft
< 800m
< 200 ft
Simboli :   Temporali  Nebbia  Neve Forte  Precipitazioni Forti  Vento > 20 kt
SIGMETs :   Varie  Temporali  Ghiacco  Turbolenza  Onda orograficha  Ceneri Vulcaniche







- Altitudine del aeroporto : 55 ft


LIRU - Urbe

ULTIMO METAR :
  • 220650Z 00000KT 9999 SCT025 17/15 Q1017

METARs OBSOLETI :
  • 220600Z 36004KT 9999 FEW035 14/14 Q1017

TAF TAF LIRU
Valido dal 22 a 06 ore il 22 a 15 ore UTC


220500Z 2206/2215 VRB05KT 9999 FEW030
BECMG 2210/2212 20010KT
TEMPO 2212/2215 SHRA
Nessun NOTAM noto per questo aeroporto.
1 SIGMET conosciuto per la FIR Roma (LIRR) :
 
Turbolenza severa
LIRR SIGMET 2 VALID 220430/220830 LIIB
LIRR ROMA FIR SEV TURB FCST WI N3833 E00854 - N4201 E01345 - N4122 E01425 - N4112 E01507 - N3901 E01622 - N3856 E01724 - N3631 E01542 - N3630 E01125 - N3728 E01129 - N3833 E00854 FL270/380 STNR NC=



MetMap, La meteo Aeronautica in un colpo d'occhio ! - Copyright ORBIFLY Dicembre 2007 - Disclaimer

ORBIFLY MET'MAP TEAM :

Programmazione e sviluppo : Alexandra Zaïnal
Concezione e sviluppo : Baudouin d'Aumeries
Co-Programmazione e sviluppo : Marc-Olivier Méhu
Supporto tecnico e logistico : Manuel Goepfert
Aiuto per la traduzione : Arnaldo La Scala

Contatto : metmap@orbifly.com




FONTI E CREDITI :

   NOAA